Terminal Aerodrome Forecast
Issued by NWS Charleston, WV

Current Version | Previous Version | Text Only | Print | Product List | Glossary Off
Versions: 1 2 3 4 5 6 7 8 9 10 11 12 13 14 15 16 17 18 19 20 21 22 23 24 25 26 27 28 29 30 31 32

000
FTUS41 KRLX 170157 AAA
TAFEKN
TAF AMD
KEKN 170157Z 1702/1724 25012G20KT 4SM -SN OVC020
      TEMPO 1702/1704 2SM -SN OVC015
     FM170400 26013G19KT 2SM -SN OVC020
     FM171300 28013G20KT 3SM -SN OVC025
     FM171800 27014G21KT P6SM OVC025
     FM172300 28011KT P6SM SCT025=

USA.gov is the U.S. government's official web portal to all federal, state and local government web resources and services.